createdAt,value
2019-03-16T00:01:13.632Z,1.70
2019-03-16T00:03:42.618Z,1.87
2019-03-16T00:06:11.562Z,1.80
2019-03-16T00:08:40.482Z,1.70
2019-03-16T00:11:09.471Z,1.77
2019-03-16T00:13:38.458Z,1.77
2019-03-16T00:16:07.566Z,1.40
2019-03-16T00:18:37.810Z,2.47
2019-03-16T00:21:06.704Z,1.30
2019-03-16T00:23:35.572Z,1.80
2019-03-16T00:26:06.087Z,1.83
2019-03-16T00:28:35.034Z,2.23
2019-03-16T00:31:04.060Z,2.40
2019-03-16T00:33:33.133Z,1.73
2019-03-16T00:36:02.160Z,1.80
2019-03-16T00:38:31.084Z,1.73
2019-03-16T00:40:59.952Z,1.77
2019-03-16T00:43:28.766Z,1.73
2019-03-16T00:45:57.729Z,1.70
2019-03-16T00:48:26.581Z,2.20
2019-03-16T00:50:55.522Z,1.63
2019-03-16T00:53:24.445Z,1.87
2019-03-16T00:55:53.643Z,1.77
2019-03-16T00:58:22.570Z,2.80
2019-03-16T01:00:51.526Z,2.30
2019-03-16T01:03:20.416Z,1.70
2019-03-16T01:05:49.355Z,1.63
2019-03-16T01:08:18.192Z,2.27
2019-03-16T01:10:47.170Z,2.90
2019-03-16T01:13:16.278Z,2.57
2019-03-16T01:15:45.505Z,2.60
2019-03-16T01:18:14.420Z,2.07
2019-03-16T01:20:43.732Z,2.53
2019-03-16T01:23:13.038Z,2.40
2019-03-16T01:25:42.275Z,2.30
2019-03-16T01:28:26.351Z,2.50
2019-03-16T01:31:00.700Z,2.97
2019-03-16T01:33:30.107Z,3.10
2019-03-16T01:36:01.594Z,2.20
2019-03-16T01:38:30.872Z,2.40
2019-03-16T01:41:00.163Z,2.00
2019-03-16T01:43:29.718Z,1.83
2019-03-16T01:45:58.987Z,3.10
2019-03-16T01:48:28.794Z,2.40
2019-03-16T01:51:00.355Z,3.03
2019-03-16T01:53:30.087Z,2.67
2019-03-16T01:55:59.991Z,2.00
2019-03-16T01:58:35.380Z,3.40
2019-03-16T02:01:05.144Z,2.53
2019-03-16T02:03:34.987Z,2.97
2019-03-16T02:06:04.777Z,2.47
2019-03-16T02:08:34.716Z,2.70
2019-03-16T02:11:04.219Z,2.43
2019-03-16T02:13:33.327Z,2.60
2019-03-16T02:16:10.878Z,2.40
2019-03-16T02:18:33.385Z,2.57
2019-03-16T02:21:02.251Z,2.23
2019-03-16T02:23:31.576Z,2.13
2019-03-16T02:26:00.879Z,2.03
2019-03-16T02:28:29.737Z,2.20
2019-03-16T02:30:58.736Z,2.60
2019-03-16T02:33:28.091Z,1.73
2019-03-16T02:35:57.197Z,2.53
2019-03-16T02:38:26.409Z,2.07
2019-03-16T02:40:55.807Z,2.03
2019-03-16T02:43:24.836Z,2.87
2019-03-16T02:45:54.247Z,2.30
2019-03-16T02:48:23.128Z,3.13
2019-03-16T02:50:52.014Z,2.47
2019-03-16T02:53:21.003Z,2.90
2019-03-16T02:55:50.024Z,2.40
2019-03-16T02:58:19.290Z,2.07
2019-03-16T03:00:59.096Z,2.20
2019-03-16T03:04:14.521Z,3.57
2019-03-16T03:06:46.978Z,2.10
2019-03-16T03:09:16.166Z,3.40
2019-03-16T03:11:50.595Z,2.20
2019-03-16T03:14:24.791Z,3.70
2019-03-16T03:16:54.578Z,2.90
2019-03-16T03:19:29.676Z,2.10
2019-03-16T03:21:57.727Z,2.40
2019-03-16T03:24:30.872Z,2.63
2019-03-16T03:27:17.563Z,1.93
2019-03-16T03:29:52.048Z,2.13
2019-03-16T03:32:30.256Z,2.63
2019-03-16T03:35:39.308Z,2.57
2019-03-16T04:05:16.700Z,1.90
2019-03-16T04:12:50.498Z,2.30
2019-03-16T04:20:15.213Z,2.17
2019-03-16T04:23:12.375Z,2.30
2019-03-16T04:25:42.986Z,3.13
2019-03-16T04:29:21.465Z,2.90
2019-03-16T04:32:26.356Z,2.67
2019-03-16T04:35:31.086Z,2.47
2019-03-16T04:38:23.219Z,2.47
2019-03-16T04:40:53.336Z,2.53
2019-03-16T04:43:31.141Z,2.60
2019-03-16T04:46:04.611Z,3.00
2019-03-16T04:48:43.083Z,1.70
2019-03-16T04:51:13.367Z,1.90
2019-03-16T04:53:53.928Z,2.37
2019-03-16T04:56:23.282Z,2.50
2019-03-16T04:59:05.948Z,3.20
2019-03-16T05:02:15.383Z,2.90
2019-03-16T05:04:46.016Z,3.60
2019-03-16T05:07:18.546Z,1.83
2019-03-16T05:10:10.622Z,2.77
2019-03-16T05:12:54.224Z,2.70
2019-03-16T05:15:23.241Z,2.20
2019-03-16T05:18:04.026Z,2.83
2019-03-16T05:35:58.751Z,3.33
2019-03-16T05:43:18.273Z,2.67
2019-03-16T05:46:44.522Z,2.20
2019-03-16T05:49:39.359Z,2.10
2019-03-16T05:52:37.072Z,3.10
2019-03-16T05:55:06.718Z,2.40
2019-03-16T06:01:32.991Z,2.50
2019-03-16T06:04:20.203Z,2.10
2019-03-16T06:07:44.543Z,2.60
2019-03-16T06:14:19.074Z,2.50
2019-03-16T06:32:05.084Z,2.63
2019-03-16T06:35:24.870Z,2.83
2019-03-16T06:42:24.474Z,2.67
2019-03-16T06:45:12.361Z,4.93
2019-03-16T06:48:39.923Z,3.47
2019-03-16T06:51:09.617Z,3.00
2019-03-16T06:53:46.919Z,2.47
2019-03-16T06:59:40.355Z,3.73
2019-03-16T07:02:12.391Z,2.73
2019-03-16T07:04:45.318Z,2.50
2019-03-16T07:10:31.143Z,2.53
2019-03-16T07:17:36.349Z,2.37
2019-03-16T07:20:41.002Z,2.90
2019-03-16T07:23:09.903Z,2.80
2019-03-16T07:25:38.754Z,2.67
2019-03-16T07:28:07.633Z,2.93
2019-03-16T07:30:37.395Z,2.20
2019-03-16T07:33:06.441Z,2.50
2019-03-16T07:35:35.296Z,2.40
2019-03-16T07:38:04.499Z,2.93
2019-03-16T07:40:33.369Z,2.73
2019-03-16T07:43:02.212Z,3.20
2019-03-16T07:45:31.061Z,2.43
2019-03-16T07:47:59.941Z,2.70
2019-03-16T07:50:28.725Z,2.43
2019-03-16T07:52:57.755Z,2.93
2019-03-16T07:55:26.703Z,2.73
2019-03-16T07:57:55.568Z,2.43
2019-03-16T08:00:27.881Z,2.50
2019-03-16T08:02:56.953Z,2.83
2019-03-16T08:05:25.781Z,3.30
2019-03-16T08:07:55.734Z,2.40
2019-03-16T08:10:24.696Z,3.53
2019-03-16T08:12:53.560Z,2.43
2019-03-16T08:15:22.496Z,3.20
2019-03-16T08:17:52.143Z,3.30
2019-03-16T08:20:21.145Z,3.03
2019-03-16T08:22:50.028Z,3.07
2019-03-16T08:25:19.119Z,2.60
2019-03-16T08:27:53.930Z,4.07
2019-03-16T08:30:18.604Z,2.80
2019-03-16T08:32:48.556Z,2.73
2019-03-16T08:35:17.440Z,2.50
2019-03-16T08:37:46.477Z,3.50
2019-03-16T08:40:15.467Z,2.90
2019-03-16T08:42:44.402Z,2.77
2019-03-16T08:45:13.431Z,3.50
2019-03-16T08:47:42.363Z,2.13
2019-03-16T08:50:11.856Z,2.60
2019-03-16T08:52:40.744Z,2.67
2019-03-16T08:55:09.836Z,3.10
2019-03-16T08:57:38.810Z,2.43
2019-03-16T09:00:08.512Z,2.53
2019-03-16T09:02:37.374Z,2.90
2019-03-16T09:05:06.532Z,3.30
2019-03-16T09:07:35.426Z,2.65
2019-03-16T09:10:04.872Z,2.97
2019-03-16T09:12:33.716Z,2.73
2019-03-16T09:15:02.643Z,3.37
2019-03-16T09:17:31.652Z,2.83
2019-03-16T09:20:00.666Z,2.83
2019-03-16T09:22:29.823Z,3.23
2019-03-16T09:24:58.730Z,2.70
2019-03-16T09:27:31.551Z,2.83
2019-03-16T09:29:58.486Z,3.87
2019-03-16T09:32:27.414Z,2.40
2019-03-16T09:34:56.254Z,2.30
2019-03-16T09:37:25.085Z,2.67
2019-03-16T09:39:54.098Z,2.67
2019-03-16T09:42:23.184Z,2.63
2019-03-16T09:44:52.142Z,3.17
2019-03-16T09:47:21.285Z,2.27
2019-03-16T09:49:50.257Z,2.30
2019-03-16T09:52:19.182Z,3.20
2019-03-16T09:54:48.204Z,2.17
2019-03-16T09:57:17.118Z,2.77
2019-03-16T09:59:46.114Z,2.23
2019-03-16T10:02:15.104Z,2.97
2019-03-16T10:04:43.994Z,2.00
2019-03-16T10:07:13.035Z,2.93
2019-03-16T10:09:42.030Z,3.50
2019-03-16T10:12:10.882Z,2.33
2019-03-16T10:14:39.896Z,2.73
2019-03-16T10:17:08.970Z,2.10
2019-03-16T10:19:37.878Z,2.60
2019-03-16T10:22:06.766Z,2.43
2019-03-16T10:24:35.620Z,2.13
2019-03-16T10:27:04.652Z,2.70
2019-03-16T10:29:33.440Z,2.63
2019-03-16T10:32:02.325Z,1.97
2019-03-16T10:34:31.239Z,2.60
2019-03-16T10:37:03.371Z,2.60
2019-03-16T10:39:32.240Z,3.00
2019-03-16T10:42:01.113Z,2.30
2019-03-16T10:44:30.007Z,2.40
2019-03-16T10:46:58.998Z,2.20
2019-03-16T10:49:27.842Z,2.10
2019-03-16T10:51:56.878Z,2.87
2019-03-16T10:54:26.460Z,2.00
2019-03-16T10:56:55.308Z,2.53
2019-03-16T10:59:24.120Z,2.80
2019-03-16T11:01:53.070Z,2.20
2019-03-16T11:04:21.915Z,1.83
2019-03-16T11:06:50.709Z,2.27
2019-03-16T11:09:19.527Z,2.47
2019-03-16T11:11:48.365Z,3.10
2019-03-16T11:14:17.263Z,2.30
2019-03-16T11:16:46.143Z,1.60
2019-03-16T11:19:15.041Z,2.23
2019-03-16T11:21:43.869Z,1.27
2019-03-16T11:24:12.787Z,1.60
2019-03-16T11:26:41.751Z,1.70
2019-03-16T11:29:10.679Z,1.10
2019-03-16T11:31:39.505Z,1.30
2019-03-16T11:34:08.493Z,1.47
2019-03-16T11:36:37.321Z,1.20
2019-03-16T11:39:08.311Z,1.60
2019-03-16T11:41:37.173Z,0.97
2019-03-16T11:44:06.015Z,1.13
2019-03-16T11:46:34.916Z,1.13
2019-03-16T11:49:03.787Z,1.23
2019-03-16T11:51:32.741Z,1.23
2019-03-16T11:54:01.587Z,1.63
2019-03-16T11:56:30.493Z,1.50
2019-03-16T11:58:59.569Z,1.50
2019-03-16T12:01:28.572Z,1.40
2019-03-16T12:03:57.530Z,1.60
2019-03-16T12:06:26.533Z,1.37
2019-03-16T12:08:55.338Z,1.43
2019-03-16T12:11:24.245Z,1.83
2019-03-16T12:13:53.203Z,1.60
2019-03-16T12:16:22.011Z,2.17
2019-03-16T12:18:50.831Z,1.50
2019-03-16T12:21:19.773Z,1.70
2019-03-16T12:23:48.604Z,1.60
2019-03-16T12:26:20.035Z,2.07
2019-03-16T12:28:48.046Z,1.90
2019-03-16T12:31:16.975Z,2.33
2019-03-16T12:33:45.920Z,2.80
2019-03-16T12:36:14.852Z,2.50
2019-03-16T12:38:43.684Z,2.30
2019-03-16T12:41:12.754Z,2.63
2019-03-16T12:43:41.573Z,3.30
2019-03-16T12:46:10.439Z,2.90
2019-03-16T12:48:39.275Z,2.90
2019-03-16T12:51:08.132Z,3.40
2019-03-16T12:53:39.454Z,2.53
2019-03-16T12:56:07.667Z,2.53
2019-03-16T12:58:36.662Z,3.07
2019-03-16T13:01:05.608Z,2.87
2019-03-16T13:03:34.444Z,2.70
2019-03-16T13:06:03.281Z,2.33
2019-03-16T13:08:32.229Z,2.80
2019-03-16T13:11:01.081Z,2.43
2019-03-16T13:13:29.940Z,2.67
2019-03-16T13:15:58.794Z,2.50
2019-03-16T13:18:27.690Z,2.40
2019-03-16T13:20:56.708Z,2.30
2019-03-16T13:23:25.511Z,1.80
2019-03-16T13:25:54.380Z,2.00
2019-03-16T13:28:23.198Z,2.40
2019-03-16T13:30:52.180Z,1.57
2019-03-16T13:33:21.099Z,1.63
2019-03-16T13:35:50.015Z,2.40
2019-03-16T13:38:18.866Z,1.60
2019-03-16T13:40:47.861Z,1.30
2019-03-16T13:43:16.806Z,1.20
2019-03-16T13:45:45.781Z,1.10
2019-03-16T13:48:14.807Z,0.90
2019-03-16T13:50:43.770Z,0.87
2019-03-16T13:53:12.956Z,1.00
2019-03-16T13:55:41.892Z,1.33
2019-03-16T13:58:10.996Z,1.60
2019-03-16T14:00:39.873Z,1.43
2019-03-16T14:03:09.888Z,1.27
2019-03-16T14:05:38.883Z,0.90
2019-03-16T14:08:07.829Z,1.50
2019-03-16T14:10:37.012Z,1.30
2019-03-16T14:13:06.028Z,1.47
2019-03-16T14:15:35.162Z,1.57
2019-03-16T14:18:04.293Z,1.07
2019-03-16T14:20:33.341Z,0.97
2019-03-16T14:23:02.706Z,1.33
2019-03-16T14:25:31.922Z,1.33
2019-03-16T14:28:00.856Z,1.70
2019-03-16T14:30:40.923Z,2.00
2019-03-16T14:33:00.420Z,1.73
2019-03-16T14:35:29.470Z,2.67
2019-03-16T14:37:58.448Z,3.80
2019-03-16T14:40:27.406Z,2.40
2019-03-16T14:42:56.551Z,2.73
2019-03-16T14:45:25.826Z,3.93
2019-03-16T14:47:54.983Z,2.67
2019-03-16T14:50:24.057Z,2.50
2019-03-16T14:52:53.334Z,2.33
2019-03-16T14:55:22.660Z,2.20
2019-03-16T14:57:51.685Z,6.57
2019-03-16T15:00:20.712Z,2.47
2019-03-16T15:02:49.689Z,4.23
2019-03-16T15:05:18.594Z,2.47
2019-03-16T15:07:49.887Z,2.00
2019-03-16T15:10:18.379Z,3.40
2019-03-16T15:12:48.170Z,3.60
2019-03-16T15:15:17.235Z,3.20
2019-03-16T15:17:46.359Z,3.40
2019-03-16T15:20:15.368Z,5.63
2019-03-16T15:22:44.516Z,3.00
2019-03-16T15:25:13.484Z,2.90
2019-03-16T15:27:42.525Z,2.90
2019-03-16T15:30:13.144Z,3.87
2019-03-16T15:32:42.430Z,3.30
2019-03-16T15:35:11.661Z,7.30
2019-03-16T15:37:40.735Z,4.30
2019-03-16T15:40:10.142Z,4.10
2019-03-16T15:42:39.081Z,3.30
2019-03-16T15:45:10.950Z,3.33
2019-03-16T15:47:39.879Z,2.83
2019-03-16T15:50:09.042Z,3.00
2019-03-16T15:52:37.954Z,3.43
2019-03-16T15:55:07.024Z,3.00
2019-03-16T15:58:07.871Z,3.50
2019-03-16T16:00:32.495Z,4.30
2019-03-16T16:03:01.507Z,3.50
2019-03-16T16:05:30.549Z,5.90
2019-03-16T16:07:59.485Z,5.90
2019-03-16T16:10:28.323Z,4.47
2019-03-16T16:12:57.246Z,3.43
2019-03-16T16:15:26.269Z,3.43
2019-03-16T16:17:55.485Z,3.97
2019-03-16T16:20:25.329Z,3.80
2019-03-16T16:22:54.591Z,4.13
2019-03-16T16:25:23.567Z,4.57
2019-03-16T16:27:52.566Z,4.63
2019-03-16T16:30:21.673Z,4.60
2019-03-16T16:32:50.727Z,4.63
2019-03-16T16:35:20.254Z,5.63
2019-03-16T16:37:49.255Z,6.63
2019-03-16T16:40:18.324Z,12.30
2019-03-16T16:42:47.391Z,7.20
2019-03-16T16:45:16.692Z,7.30
2019-03-16T16:47:45.939Z,6.87
2019-03-16T16:50:15.194Z,7.00
2019-03-16T16:52:44.319Z,7.17
2019-03-16T16:55:13.486Z,7.27
2019-03-16T16:57:42.531Z,7.47
2019-03-16T17:00:13.823Z,7.60
2019-03-16T17:02:43.041Z,8.23
2019-03-16T17:05:12.181Z,9.20
2019-03-16T17:07:41.170Z,9.67
2019-03-16T17:10:12.011Z,8.60
2019-03-16T17:12:41.105Z,9.53
2019-03-16T17:15:10.795Z,10.70
2019-03-16T17:17:39.698Z,11.40
2019-03-16T17:20:09.192Z,11.20
2019-03-16T17:22:38.046Z,11.10
2019-03-16T17:25:07.342Z,12.17
2019-03-16T17:27:36.614Z,12.03
2019-03-16T17:30:07.637Z,11.67
2019-03-16T17:32:36.608Z,13.10
2019-03-16T17:35:05.966Z,12.77
2019-03-16T17:37:35.039Z,13.43
2019-03-16T17:40:04.630Z,13.63
2019-03-16T17:42:33.531Z,11.90
2019-03-16T17:45:02.450Z,14.00
2019-03-16T17:47:31.513Z,13.30
2019-03-16T17:50:00.486Z,13.17
2019-03-16T17:52:29.479Z,12.73
2019-03-16T17:54:58.367Z,15.80
2019-03-16T17:57:27.334Z,14.57
2019-03-16T17:59:56.259Z,15.20
2019-03-16T18:02:25.348Z,15.30
2019-03-16T18:04:54.199Z,15.73
2019-03-16T18:07:23.192Z,17.20
2019-03-16T18:09:52.182Z,17.27
2019-03-16T18:12:21.124Z,17.90
2019-03-16T18:14:50.071Z,18.33
2019-03-16T18:17:19.184Z,18.50
2019-03-16T18:19:48.060Z,19.10
2019-03-16T18:22:16.908Z,19.97
2019-03-16T18:24:45.802Z,20.93
2019-03-16T18:27:14.854Z,19.77
2019-03-16T18:29:43.815Z,20.90
2019-03-16T18:32:13.098Z,20.70
2019-03-16T18:34:42.107Z,20.47
2019-03-16T18:37:11.374Z,20.60
2019-03-16T18:39:40.341Z,21.60
2019-03-16T18:42:09.286Z,19.90
2019-03-16T18:44:40.015Z,21.50
2019-03-16T18:47:09.163Z,21.47
2019-03-16T18:49:38.138Z,19.83
2019-03-16T18:52:07.152Z,19.13
2019-03-16T18:54:36.208Z,20.27
2019-03-16T18:57:05.482Z,20.40
2019-03-16T18:59:34.458Z,21.20
2019-03-16T19:02:03.357Z,20.50
2019-03-16T19:04:32.316Z,20.57
2019-03-16T19:07:01.328Z,19.40
2019-03-16T19:09:31.013Z,19.10
2019-03-16T19:11:59.946Z,20.57
2019-03-16T19:14:28.890Z,19.27
2019-03-16T19:16:58.006Z,19.43
2019-03-16T19:19:26.912Z,18.80
2019-03-16T19:21:56.170Z,18.40
2019-03-16T19:24:25.469Z,17.03
2019-03-16T19:26:55.077Z,15.10
2019-03-16T19:29:28.168Z,14.30
2019-03-16T19:32:05.386Z,14.50
2019-03-16T19:34:34.634Z,14.10
2019-03-16T19:37:03.860Z,14.37
2019-03-16T19:39:33.288Z,13.10
2019-03-16T19:42:02.388Z,12.90
2019-03-16T19:44:38.909Z,12.77
2019-03-16T19:47:19.293Z,13.47
2019-03-16T19:49:49.486Z,12.57
2019-03-16T19:52:19.888Z,12.50
2019-03-16T19:55:12.054Z,12.70
2019-03-16T19:57:41.534Z,12.47
2019-03-16T20:00:12.544Z,12.70
2019-03-16T20:02:50.341Z,11.50
2019-03-16T20:05:13.608Z,13.03
2019-03-16T20:07:43.066Z,11.63
2019-03-16T20:10:12.928Z,12.70
2019-03-16T20:12:43.213Z,12.90
2019-03-16T20:15:13.443Z,11.90
2019-03-16T20:17:42.904Z,13.83
2019-03-16T20:20:12.659Z,13.10
2019-03-16T20:22:42.222Z,12.17
2019-03-16T20:25:12.289Z,12.07
2019-03-16T20:27:55.968Z,13.00
2019-03-16T20:30:27.195Z,15.37
2019-03-16T20:33:09.081Z,14.50
2019-03-16T20:35:41.633Z,14.37
2019-03-16T20:38:11.311Z,14.10
2019-03-16T20:40:41.111Z,12.73
2019-03-16T20:43:14.853Z,12.80
2019-03-16T20:45:44.237Z,12.77
2019-03-16T20:48:13.827Z,12.23
2019-03-16T20:50:43.757Z,12.17
2019-03-16T20:53:19.979Z,11.70
2019-03-16T20:55:49.771Z,10.43
2019-03-16T20:58:24.644Z,10.90
2019-03-16T21:00:54.764Z,9.07
2019-03-16T21:03:39.745Z,10.40
2019-03-16T21:06:18.463Z,8.30
2019-03-16T21:09:02.499Z,8.87
2019-03-16T21:11:28.703Z,8.27
2019-03-16T21:14:00.801Z,7.63
2019-03-16T21:16:33.259Z,7.40
2019-03-16T21:19:03.427Z,6.83
2019-03-16T21:21:35.765Z,5.87
2019-03-16T21:24:07.448Z,5.67
2019-03-16T21:26:37.157Z,5.10
2019-03-16T21:29:06.739Z,5.67
2019-03-16T21:31:38.777Z,4.80
2019-03-16T21:34:22.393Z,4.60
2019-03-16T21:36:54.376Z,4.10
2019-03-16T21:39:42.651Z,4.03
2019-03-16T21:42:15.225Z,4.10
2019-03-16T21:44:50.313Z,3.30
2019-03-16T21:47:24.609Z,3.83
2019-03-16T21:50:00.017Z,4.30
2019-03-16T21:52:33.323Z,3.97
2019-03-16T21:56:08.661Z,3.40
2019-03-16T21:59:02.720Z,3.27
2019-03-16T22:01:42.985Z,2.63
2019-03-16T22:04:40.129Z,2.83
2019-03-16T22:07:15.599Z,3.10
2019-03-16T22:10:09.217Z,2.57
2019-03-16T22:12:39.443Z,2.70
2019-03-16T22:15:16.535Z,2.23
2019-03-16T22:17:50.655Z,3.20
2019-03-16T22:20:20.515Z,2.50
2019-03-16T22:22:55.790Z,2.67
2019-03-16T22:25:31.462Z,2.50
2019-03-16T22:28:01.349Z,2.23
2019-03-16T22:30:32.012Z,2.30
2019-03-16T22:33:01.899Z,2.70
2019-03-16T22:35:39.498Z,2.27
2019-03-16T22:38:17.867Z,2.50
2019-03-16T22:40:47.836Z,2.50
2019-03-16T22:43:19.042Z,2.80
2019-03-16T22:45:49.529Z,2.37
2019-03-16T22:48:44.951Z,2.80
2019-03-16T22:51:26.770Z,2.60
2019-03-16T22:54:25.429Z,2.40
2019-03-16T22:57:01.271Z,1.83
2019-03-16T22:59:39.356Z,2.03
2019-03-16T23:02:09.892Z,2.47
2019-03-16T23:04:42.636Z,2.40
2019-03-16T23:12:00.313Z,2.73
2019-03-16T23:17:20.564Z,2.07
2019-03-16T23:19:51.023Z,2.27
2019-03-16T23:22:32.598Z,2.57
2019-03-16T23:25:13.418Z,2.40
2019-03-16T23:27:43.444Z,2.90
2019-03-16T23:30:17.859Z,2.70
2019-03-16T23:33:11.271Z,2.97
2019-03-16T23:35:44.316Z,2.47
2019-03-16T23:38:29.068Z,2.50
2019-03-16T23:47:50.494Z,2.50
2019-03-16T23:51:33.441Z,3.10
2019-03-16T23:54:40.170Z,2.97
2019-03-16T23:57:35.068Z,2.70
